sensor_id;sensor_type;location;lat;lon;timestamp;P1;durP1;ratioP1;P2;durP2;ratioP2
19776;SDS011;10047;42.490;26.012;2024-02-15T00:00:20;7.75;;;6.38;;
19776;SDS011;10047;42.490;26.012;2024-02-15T00:02:47;7.38;;;5.60;;
19776;SDS011;10047;42.490;26.012;2024-02-15T00:05:14;7.40;;;5.32;;
19776;SDS011;10047;42.490;26.012;2024-02-15T00:07:42;6.55;;;5.78;;
19776;SDS011;10047;42.490;26.012;2024-02-15T00:10:09;8.00;;;5.63;;
19776;SDS011;10047;42.490;26.012;2024-02-15T00:12:34;7.47;;;5.43;;
19776;SDS011;10047;42.490;26.012;2024-02-15T00:15:00;7.45;;;5.65;;
19776;SDS011;10047;42.490;26.012;2024-02-15T00:17:27;7.63;;;6.57;;
19776;SDS011;10047;42.490;26.012;2024-02-15T00:19:54;7.45;;;5.78;;
19776;SDS011;10047;42.490;26.012;2024-02-15T00:22:20;7.60;;;5.40;;
19776;SDS011;10047;42.490;26.012;2024-02-15T00:24:46;7.35;;;5.82;;
19776;SDS011;10047;42.490;26.012;2024-02-15T00:27:14;8.02;;;6.30;;
19776;SDS011;10047;42.490;26.012;2024-02-15T00:29:40;8.65;;;5.95;;
19776;SDS011;10047;42.490;26.012;2024-02-15T00:32:06;8.68;;;7.18;;
19776;SDS011;10047;42.490;26.012;2024-02-15T00:34:42;4.72;;;4.20;;
19776;SDS011;10047;42.490;26.012;2024-02-15T00:37:07;4.82;;;3.80;;
19776;SDS011;10047;42.490;26.012;2024-02-15T00:39:33;12.82;;;8.50;;
19776;SDS011;10047;42.490;26.012;2024-02-15T00:41:58;6.93;;;4.28;;
19776;SDS011;10047;42.490;26.012;2024-02-15T00:44:25;5.30;;;3.53;;
19776;SDS011;10047;42.490;26.012;2024-02-15T00:46:51;8.60;;;5.80;;
19776;SDS011;10047;42.490;26.012;2024-02-15T00:49:17;16.55;;;10.30;;
19776;SDS011;10047;42.490;26.012;2024-02-15T00:51:45;4.45;;;3.00;;
19776;SDS011;10047;42.490;26.012;2024-02-15T00:54:12;3.92;;;2.72;;
19776;SDS011;10047;42.490;26.012;2024-02-15T00:56:37;2.78;;;2.33;;
19776;SDS011;10047;42.490;26.012;2024-02-15T00:59:03;4.03;;;2.33;;
19776;SDS011;10047;42.490;26.012;2024-02-15T01:01:30;3.00;;;2.35;;
19776;SDS011;10047;42.490;26.012;2024-02-15T01:03:55;3.45;;;2.55;;
19776;SDS011;10047;42.490;26.012;2024-02-15T01:06:21;2.30;;;2.00;;
19776;SDS011;10047;42.490;26.012;2024-02-15T01:08:47;2.67;;;1.98;;
19776;SDS011;10047;42.490;26.012;2024-02-15T01:11:12;2.88;;;1.98;;
19776;SDS011;10047;42.490;26.012;2024-02-15T01:13:38;2.50;;;2.10;;
19776;SDS011;10047;42.490;26.012;2024-02-15T01:16:04;2.97;;;2.20;;
19776;SDS011;10047;42.490;26.012;2024-02-15T01:18:30;2.42;;;2.20;;
19776;SDS011;10047;42.490;26.012;2024-02-15T01:20:57;3.15;;;2.22;;
19776;SDS011;10047;42.490;26.012;2024-02-15T01:23:22;2.67;;;1.95;;
19776;SDS011;10047;42.490;26.012;2024-02-15T01:25:48;2.55;;;2.20;;
19776;SDS011;10047;42.490;26.012;2024-02-15T01:28:13;3.50;;;2.38;;
19776;SDS011;10047;42.490;26.012;2024-02-15T01:30:39;2.50;;;2.30;;
19776;SDS011;10047;42.490;26.012;2024-02-15T01:33:05;2.50;;;2.25;;
19776;SDS011;10047;42.490;26.012;2024-02-15T01:35:31;3.53;;;2.25;;
19776;SDS011;10047;42.490;26.012;2024-02-15T01:37:56;3.00;;;2.40;;
19776;SDS011;10047;42.490;26.012;2024-02-15T01:40:22;3.72;;;2.40;;
19776;SDS011;10047;42.490;26.012;2024-02-15T01:42:47;3.65;;;2.78;;
19776;SDS011;10047;42.490;26.012;2024-02-15T01:45:15;2.97;;;2.30;;
19776;SDS011;10047;42.490;26.012;2024-02-15T01:47:40;4.43;;;2.60;;
19776;SDS011;10047;42.490;26.012;2024-02-15T01:50:08;3.38;;;2.70;;
19776;SDS011;10047;42.490;26.012;2024-02-15T01:52:36;2.80;;;2.40;;
19776;SDS011;10047;42.490;26.012;2024-02-15T01:55:03;3.38;;;2.60;;
19776;SDS011;10047;42.490;26.012;2024-02-15T01:57:33;3.95;;;2.40;;
19776;SDS011;10047;42.490;26.012;2024-02-15T02:00:00;3.40;;;2.60;;
19776;SDS011;10047;42.490;26.012;2024-02-15T02:02:27;4.57;;;2.50;;
19776;SDS011;10047;42.490;26.012;2024-02-15T02:04:56;3.72;;;3.33;;
19776;SDS011;10047;42.490;26.012;2024-02-15T02:07:22;4.05;;;3.47;;
19776;SDS011;10047;42.490;26.012;2024-02-15T02:09:48;3.55;;;3.13;;
19776;SDS011;10047;42.490;26.012;2024-02-15T02:12:14;4.28;;;2.92;;
19776;SDS011;10047;42.490;26.012;2024-02-15T02:14:40;3.70;;;3.15;;
19776;SDS011;10047;42.490;26.012;2024-02-15T02:17:15;3.75;;;3.40;;
19776;SDS011;10047;42.490;26.012;2024-02-15T02:19:41;3.88;;;3.47;;
19776;SDS011;10047;42.490;26.012;2024-02-15T02:22:08;6.82;;;3.35;;
19776;SDS011;10047;42.490;26.012;2024-02-15T02:24:36;4.28;;;3.58;;
19776;SDS011;10047;42.490;26.012;2024-02-15T02:27:24;4.53;;;3.50;;
19776;SDS011;10047;42.490;26.012;2024-02-15T02:29:54;4.20;;;3.80;;
19776;SDS011;10047;42.490;26.012;2024-02-15T02:32:19;3.65;;;3.33;;
19776;SDS011;10047;42.490;26.012;2024-02-15T02:34:45;4.15;;;3.75;;
19776;SDS011;10047;42.490;26.012;2024-02-15T02:37:10;4.13;;;3.72;;
19776;SDS011;10047;42.490;26.012;2024-02-15T02:39:37;4.00;;;3.45;;
19776;SDS011;10047;42.490;26.012;2024-02-15T02:42:02;4.32;;;3.85;;
19776;SDS011;10047;42.490;26.012;2024-02-15T02:44:27;4.40;;;3.58;;
19776;SDS011;10047;42.490;26.012;2024-02-15T02:46:53;5.57;;;4.53;;
19776;SDS011;10047;42.490;26.012;2024-02-15T02:49:18;6.28;;;4.38;;
19776;SDS011;10047;42.490;26.012;2024-02-15T02:51:44;5.57;;;4.57;;
19776;SDS011;10047;42.490;26.012;2024-02-15T02:54:09;5.30;;;4.18;;
19776;SDS011;10047;42.490;26.012;2024-02-15T02:56:36;5.38;;;4.57;;
19776;SDS011;10047;42.490;26.012;2024-02-15T02:59:01;5.97;;;4.88;;
19776;SDS011;10047;42.490;26.012;2024-02-15T03:01:26;6.20;;;4.57;;
19776;SDS011;10047;42.490;26.012;2024-02-15T03:03:52;6.78;;;4.25;;
19776;SDS011;10047;42.490;26.012;2024-02-15T03:06:20;4.97;;;4.20;;
19776;SDS011;10047;42.490;26.012;2024-02-15T03:08:46;4.65;;;3.58;;
19776;SDS011;10047;42.490;26.012;2024-02-15T03:11:13;5.38;;;3.88;;
19776;SDS011;10047;42.490;26.012;2024-02-15T03:13:39;4.53;;;3.78;;
19776;SDS011;10047;42.490;26.012;2024-02-15T03:16:05;4.53;;;3.40;;
19776;SDS011;10047;42.490;26.012;2024-02-15T03:18:30;5.65;;;3.78;;
19776;SDS011;10047;42.490;26.012;2024-02-15T03:20:57;5.68;;;3.60;;
19776;SDS011;10047;42.490;26.012;2024-02-15T03:23:22;4.88;;;3.88;;
19776;SDS011;10047;42.490;26.012;2024-02-15T03:25:48;5.43;;;4.47;;
19776;SDS011;10047;42.490;26.012;2024-02-15T03:28:14;6.50;;;4.82;;
19776;SDS011;10047;42.490;26.012;2024-02-15T03:30:40;4.95;;;4.30;;
19776;SDS011;10047;42.490;26.012;2024-02-15T03:33:07;6.82;;;5.43;;
19776;SDS011;10047;42.490;26.012;2024-02-15T03:35:35;7.43;;;6.13;;
19776;SDS011;10047;42.490;26.012;2024-02-15T03:38:00;10.32;;;7.10;;
19776;SDS011;10047;42.490;26.012;2024-02-15T03:40:26;9.95;;;6.93;;
19776;SDS011;10047;42.490;26.012;2024-02-15T03:42:52;8.13;;;6.40;;
19776;SDS011;10047;42.490;26.012;2024-02-15T03:45:19;7.93;;;5.85;;
19776;SDS011;10047;42.490;26.012;2024-02-15T03:47:44;6.63;;;5.55;;
19776;SDS011;10047;42.490;26.012;2024-02-15T03:50:11;7.35;;;6.05;;
19776;SDS011;10047;42.490;26.012;2024-02-15T03:52:37;7.00;;;5.43;;
19776;SDS011;10047;42.490;26.012;2024-02-15T03:55:03;6.15;;;5.47;;
19776;SDS011;10047;42.490;26.012;2024-02-15T03:57:29;6.20;;;5.32;;
19776;SDS011;10047;42.490;26.012;2024-02-15T03:59:55;6.97;;;5.70;;
19776;SDS011;10047;42.490;26.012;2024-02-15T04:02:24;7.55;;;6.45;;
19776;SDS011;10047;42.490;26.012;2024-02-15T04:04:55;7.90;;;6.28;;
19776;SDS011;10047;42.490;26.012;2024-02-15T04:07:24;9.93;;;7.05;;
19776;SDS011;10047;42.490;26.012;2024-02-15T04:09:53;8.57;;;7.20;;
19776;SDS011;10047;42.490;26.012;2024-02-15T04:12:19;9.35;;;7.43;;
19776;SDS011;10047;42.490;26.012;2024-02-15T04:14:44;8.98;;;7.85;;
19776;SDS011;10047;42.490;26.012;2024-02-15T04:17:11;10.35;;;7.78;;
19776;SDS011;10047;42.490;26.012;2024-02-15T04:19:45;9.30;;;7.70;;
19776;SDS011;10047;42.490;26.012;2024-02-15T04:22:11;8.57;;;7.40;;
19776;SDS011;10047;42.490;26.012;2024-02-15T04:24:37;9.32;;;8.05;;
19776;SDS011;10047;42.490;26.012;2024-02-15T04:27:06;12.98;;;8.70;;
19776;SDS011;10047;42.490;26.012;2024-02-15T04:29:37;10.68;;;9.05;;
19776;SDS011;10047;42.490;26.012;2024-02-15T04:32:05;11.60;;;8.75;;
19776;SDS011;10047;42.490;26.012;2024-02-15T04:34:36;9.35;;;8.18;;
19776;SDS011;10047;42.490;26.012;2024-02-15T04:37:02;11.35;;;8.55;;
19776;SDS011;10047;42.490;26.012;2024-02-15T04:39:31;10.50;;;8.07;;
19776;SDS011;10047;42.490;26.012;2024-02-15T04:41:58;11.52;;;8.05;;
19776;SDS011;10047;42.490;26.012;2024-02-15T04:44:25;10.80;;;8.55;;
19776;SDS011;10047;42.490;26.012;2024-02-15T04:46:52;12.80;;;10.32;;
19776;SDS011;10047;42.490;26.012;2024-02-15T04:49:18;12.07;;;10.02;;
19776;SDS011;10047;42.490;26.012;2024-02-15T04:51:44;13.23;;;9.68;;
19776;SDS011;10047;42.490;26.012;2024-02-15T04:54:10;13.02;;;9.68;;
19776;SDS011;10047;42.490;26.012;2024-02-15T04:56:39;11.23;;;9.13;;
19776;SDS011;10047;42.490;26.012;2024-02-15T04:59:06;10.82;;;9.00;;
19776;SDS011;10047;42.490;26.012;2024-02-15T05:01:36;13.15;;;9.75;;
19776;SDS011;10047;42.490;26.012;2024-02-15T05:04:02;13.15;;;10.27;;
19776;SDS011;10047;42.490;26.012;2024-02-15T05:06:32;13.43;;;9.52;;
19776;SDS011;10047;42.490;26.012;2024-02-15T05:08:58;14.25;;;10.43;;
19776;SDS011;10047;42.490;26.012;2024-02-15T05:11:25;16.52;;;11.80;;
19776;SDS011;10047;42.490;26.012;2024-02-15T05:13:51;14.32;;;11.02;;
19776;SDS011;10047;42.490;26.012;2024-02-15T05:16:17;14.57;;;11.40;;
19776;SDS011;10047;42.490;26.012;2024-02-15T05:18:43;13.80;;;11.02;;
19776;SDS011;10047;42.490;26.012;2024-02-15T05:21:08;13.25;;;9.65;;
19776;SDS011;10047;42.490;26.012;2024-02-15T05:23:34;12.77;;;9.38;;
19776;SDS011;10047;42.490;26.012;2024-02-15T05:26:01;11.20;;;9.27;;
19776;SDS011;10047;42.490;26.012;2024-02-15T05:28:28;12.07;;;9.60;;
19776;SDS011;10047;42.490;26.012;2024-02-15T05:31:08;12.85;;;9.60;;
19776;SDS011;10047;42.490;26.012;2024-02-15T05:33:45;13.60;;;11.50;;
19776;SDS011;10047;42.490;26.012;2024-02-15T05:36:13;23.23;;;17.98;;
19776;SDS011;10047;42.490;26.012;2024-02-15T05:38:39;27.45;;;20.20;;
19776;SDS011;10047;42.490;26.012;2024-02-15T05:41:05;20.98;;;15.00;;
19776;SDS011;10047;42.490;26.012;2024-02-15T05:43:33;17.00;;;11.82;;
19776;SDS011;10047;42.490;26.012;2024-02-15T05:46:01;18.38;;;10.68;;
19776;SDS011;10047;42.490;26.012;2024-02-15T05:48:31;15.15;;;10.55;;
19776;SDS011;10047;42.490;26.012;2024-02-15T05:51:00;13.82;;;10.95;;
19776;SDS011;10047;42.490;26.012;2024-02-15T05:53:29;14.20;;;10.43;;
19776;SDS011;10047;42.490;26.012;2024-02-15T05:55:55;14.00;;;10.80;;
19776;SDS011;10047;42.490;26.012;2024-02-15T05:58:25;14.95;;;11.57;;
19776;SDS011;10047;42.490;26.012;2024-02-15T06:00:51;17.80;;;11.73;;
19776;SDS011;10047;42.490;26.012;2024-02-15T06:03:18;17.90;;;12.73;;
19776;SDS011;10047;42.490;26.012;2024-02-15T06:05:44;18.63;;;13.27;;
19776;SDS011;10047;42.490;26.012;2024-02-15T06:08:13;17.05;;;12.48;;
19776;SDS011;10047;42.490;26.012;2024-02-15T06:10:38;15.60;;;12.32;;
19776;SDS011;10047;42.490;26.012;2024-02-15T06:13:05;14.45;;;11.98;;
19776;SDS011;10047;42.490;26.012;2024-02-15T06:15:31;17.90;;;13.07;;
19776;SDS011;10047;42.490;26.012;2024-02-15T06:17:57;16.65;;;13.02;;
19776;SDS011;10047;42.490;26.012;2024-02-15T06:20:22;42.22;;;29.73;;
19776;SDS011;10047;42.490;26.012;2024-02-15T06:22:48;19.25;;;14.48;;
19776;SDS011;10047;42.490;26.012;2024-02-15T06:25:14;15.88;;;12.27;;
19776;SDS011;10047;42.490;26.012;2024-02-15T06:27:40;15.90;;;11.13;;
19776;SDS011;10047;42.490;26.012;2024-02-15T06:30:09;13.63;;;11.27;;
19776;SDS011;10047;42.490;26.012;2024-02-15T06:32:56;14.05;;;10.07;;
19776;SDS011;10047;42.490;26.012;2024-02-15T06:35:41;13.95;;;9.60;;
19776;SDS011;10047;42.490;26.012;2024-02-15T06:38:25;12.68;;;9.38;;
19776;SDS011;10047;42.490;26.012;2024-02-15T06:41:09;12.50;;;9.45;;
19776;SDS011;10047;42.490;26.012;2024-02-15T06:43:35;13.82;;;9.23;;
19776;SDS011;10047;42.490;26.012;2024-02-15T06:46:01;13.40;;;9.95;;
19776;SDS011;10047;42.490;26.012;2024-02-15T06:48:27;13.63;;;10.57;;
19776;SDS011;10047;42.490;26.012;2024-02-15T06:50:53;13.43;;;11.45;;
19776;SDS011;10047;42.490;26.012;2024-02-15T06:53:19;13.95;;;10.40;;
19776;SDS011;10047;42.490;26.012;2024-02-15T06:55:45;12.23;;;10.15;;
19776;SDS011;10047;42.490;26.012;2024-02-15T06:58:14;14.10;;;11.38;;
19776;SDS011;10047;42.490;26.012;2024-02-15T07:00:41;12.25;;;10.40;;
19776;SDS011;10047;42.490;26.012;2024-02-15T07:03:07;10.95;;;9.27;;
19776;SDS011;10047;42.490;26.012;2024-02-15T07:05:33;10.93;;;9.25;;
19776;SDS011;10047;42.490;26.012;2024-02-15T07:07:58;12.23;;;9.25;;
19776;SDS011;10047;42.490;26.012;2024-02-15T07:10:24;11.88;;;9.20;;
19776;SDS011;10047;42.490;26.012;2024-02-15T07:12:50;10.88;;;8.63;;
19776;SDS011;10047;42.490;26.012;2024-02-15T07:15:16;11.35;;;8.65;;
19776;SDS011;10047;42.490;26.012;2024-02-15T07:17:42;10.93;;;8.52;;
19776;SDS011;10047;42.490;26.012;2024-02-15T07:20:09;9.63;;;8.20;;
19776;SDS011;10047;42.490;26.012;2024-02-15T07:22:36;11.00;;;8.57;;
19776;SDS011;10047;42.490;26.012;2024-02-15T07:25:03;9.98;;;8.40;;
19776;SDS011;10047;42.490;26.012;2024-02-15T07:27:30;9.00;;;8.02;;
19776;SDS011;10047;42.490;26.012;2024-02-15T07:29:55;10.15;;;7.95;;
19776;SDS011;10047;42.490;26.012;2024-02-15T07:32:21;9.20;;;8.10;;
19776;SDS011;10047;42.490;26.012;2024-02-15T07:34:46;9.00;;;7.78;;
19776;SDS011;10047;42.490;26.012;2024-02-15T07:37:12;10.57;;;8.18;;
19776;SDS011;10047;42.490;26.012;2024-02-15T07:39:40;10.93;;;8.30;;
19776;SDS011;10047;42.490;26.012;2024-02-15T07:42:06;10.10;;;8.13;;
19776;SDS011;10047;42.490;26.012;2024-02-15T07:44:33;8.48;;;7.13;;
19776;SDS011;10047;42.490;26.012;2024-02-15T07:47:01;9.43;;;7.53;;
19776;SDS011;10047;42.490;26.012;2024-02-15T07:49:27;9.90;;;8.30;;
19776;SDS011;10047;42.490;26.012;2024-02-15T07:51:57;11.07;;;8.30;;
19776;SDS011;10047;42.490;26.012;2024-02-15T07:54:24;8.43;;;7.43;;
19776;SDS011;10047;42.490;26.012;2024-02-15T07:56:49;9.18;;;8.07;;
19776;SDS011;10047;42.490;26.012;2024-02-15T07:59:15;9.68;;;7.43;;
19776;SDS011;10047;42.490;26.012;2024-02-15T08:01:44;8.25;;;7.20;;
19776;SDS011;10047;42.490;26.012;2024-02-15T08:04:18;10.07;;;7.40;;
19776;SDS011;10047;42.490;26.012;2024-02-15T08:06:45;8.85;;;7.28;;
19776;SDS011;10047;42.490;26.012;2024-02-15T08:09:10;9.93;;;7.97;;
19776;SDS011;10047;42.490;26.012;2024-02-15T08:11:39;13.85;;;7.63;;
19776;SDS011;10047;42.490;26.012;2024-02-15T08:14:05;9.10;;;7.40;;
19776;SDS011;10047;42.490;26.012;2024-02-15T08:16:33;10.07;;;7.10;;
19776;SDS011;10047;42.490;26.012;2024-02-15T08:18:59;8.98;;;7.35;;
19776;SDS011;10047;42.490;26.012;2024-02-15T08:21:26;9.32;;;7.70;;
19776;SDS011;10047;42.490;26.012;2024-02-15T08:23:54;9.10;;;7.07;;
19776;SDS011;10047;42.490;26.012;2024-02-15T08:26:20;9.38;;;7.75;;
19776;SDS011;10047;42.490;26.012;2024-02-15T08:28:46;9.15;;;6.75;;
19776;SDS011;10047;42.490;26.012;2024-02-15T08:31:15;8.25;;;7.13;;
19776;SDS011;10047;42.490;26.012;2024-02-15T08:33:41;9.07;;;7.13;;
19776;SDS011;10047;42.490;26.012;2024-02-15T08:36:08;11.40;;;7.65;;
19776;SDS011;10047;42.490;26.012;2024-02-15T08:38:35;10.30;;;7.85;;
19776;SDS011;10047;42.490;26.012;2024-02-15T08:41:03;8.88;;;6.90;;
19776;SDS011;10047;42.490;26.012;2024-02-15T08:43:33;7.80;;;6.25;;
19776;SDS011;10047;42.490;26.012;2024-02-15T08:45:59;8.70;;;6.70;;
19776;SDS011;10047;42.490;26.012;2024-02-15T08:48:24;8.60;;;7.07;;
19776;SDS011;10047;42.490;26.012;2024-02-15T08:50:51;8.30;;;6.50;;
19776;SDS011;10047;42.490;26.012;2024-02-15T08:53:16;7.20;;;5.82;;
19776;SDS011;10047;42.490;26.012;2024-02-15T08:55:44;7.20;;;6.00;;
19776;SDS011;10047;42.490;26.012;2024-02-15T08:58:10;7.75;;;6.22;;
19776;SDS011;10047;42.490;26.012;2024-02-15T09:00:35;9.68;;;7.60;;
19776;SDS011;10047;42.490;26.012;2024-02-15T09:03:02;7.93;;;6.60;;
19776;SDS011;10047;42.490;26.012;2024-02-15T09:05:28;8.25;;;6.07;;
19776;SDS011;10047;42.490;26.012;2024-02-15T09:07:53;7.32;;;6.13;;
19776;SDS011;10047;42.490;26.012;2024-02-15T09:10:19;13.32;;;7.88;;
19776;SDS011;10047;42.490;26.012;2024-02-15T09:12:47;8.98;;;7.05;;
19776;SDS011;10047;42.490;26.012;2024-02-15T09:15:14;7.85;;;6.60;;
19776;SDS011;10047;42.490;26.012;2024-02-15T09:17:40;9.05;;;7.45;;
19776;SDS011;10047;42.490;26.012;2024-02-15T09:20:09;9.35;;;7.65;;
19776;SDS011;10047;42.490;26.012;2024-02-15T09:22:43;8.27;;;6.50;;
19776;SDS011;10047;42.490;26.012;2024-02-15T09:25:12;13.52;;;8.85;;
19776;SDS011;10047;42.490;26.012;2024-02-15T09:27:38;17.27;;;10.88;;
19776;SDS011;10047;42.490;26.012;2024-02-15T09:30:04;19.10;;;12.18;;
19776;SDS011;10047;42.490;26.012;2024-02-15T09:32:35;9.40;;;7.53;;
19776;SDS011;10047;42.490;26.012;2024-02-15T09:35:02;11.05;;;8.43;;
19776;SDS011;10047;42.490;26.012;2024-02-15T09:37:27;14.38;;;9.88;;
19776;SDS011;10047;42.490;26.012;2024-02-15T09:39:53;7.82;;;7.00;;
19776;SDS011;10047;42.490;26.012;2024-02-15T09:42:20;9.18;;;7.07;;
19776;SDS011;10047;42.490;26.012;2024-02-15T09:44:46;10.52;;;7.40;;
19776;SDS011;10047;42.490;26.012;2024-02-15T09:47:12;14.30;;;9.68;;
19776;SDS011;10047;42.490;26.012;2024-02-15T09:49:38;19.85;;;10.40;;
19776;SDS011;10047;42.490;26.012;2024-02-15T09:52:07;10.10;;;6.80;;
19776;SDS011;10047;42.490;26.012;2024-02-15T09:54:40;6.82;;;6.13;;
19776;SDS011;10047;42.490;26.012;2024-02-15T09:57:08;8.20;;;6.45;;
19776;SDS011;10047;42.490;26.012;2024-02-15T09:59:35;9.82;;;7.05;;
19776;SDS011;10047;42.490;26.012;2024-02-15T10:02:01;8.70;;;6.55;;
19776;SDS011;10047;42.490;26.012;2024-02-15T10:04:27;9.95;;;8.00;;
19776;SDS011;10047;42.490;26.012;2024-02-15T10:06:53;8.15;;;6.90;;
19776;SDS011;10047;42.490;26.012;2024-02-15T10:09:28;6.97;;;6.28;;
19776;SDS011;10047;42.490;26.012;2024-02-15T10:11:55;8.82;;;6.63;;
19776;SDS011;10047;42.490;26.012;2024-02-15T10:14:28;8.00;;;6.63;;
19776;SDS011;10047;42.490;26.012;2024-02-15T10:16:55;7.47;;;6.57;;
19776;SDS011;10047;42.490;26.012;2024-02-15T10:19:22;8.75;;;6.72;;
19776;SDS011;10047;42.490;26.012;2024-02-15T10:21:52;8.60;;;6.53;;
19776;SDS011;10047;42.490;26.012;2024-02-15T10:24:22;7.63;;;6.05;;
19776;SDS011;10047;42.490;26.012;2024-02-15T10:26:50;8.65;;;6.75;;
19776;SDS011;10047;42.490;26.012;2024-02-15T10:29:16;6.95;;;5.82;;
19776;SDS011;10047;42.490;26.012;2024-02-15T10:31:55;8.35;;;6.63;;
19776;SDS011;10047;42.490;26.012;2024-02-15T10:34:22;6.93;;;6.00;;
19776;SDS011;10047;42.490;26.012;2024-02-15T10:36:48;10.10;;;8.05;;
19776;SDS011;10047;42.490;26.012;2024-02-15T10:39:18;6.72;;;5.63;;
19776;SDS011;10047;42.490;26.012;2024-02-15T10:41:48;6.80;;;5.20;;
19776;SDS011;10047;42.490;26.012;2024-02-15T10:46:47;8.13;;;5.43;;
19776;SDS011;10047;42.490;26.012;2024-02-15T10:49:25;6.00;;;5.20;;
19776;SDS011;10047;42.490;26.012;2024-02-15T10:51:59;5.55;;;4.97;;
19776;SDS011;10047;42.490;26.012;2024-02-15T10:57:09;6.18;;;4.32;;
19776;SDS011;10047;42.490;26.012;2024-02-15T10:59:35;4.13;;;3.70;;
19776;SDS011;10047;42.490;26.012;2024-02-15T11:02:11;4.65;;;3.80;;
19776;SDS011;10047;42.490;26.012;2024-02-15T11:04:42;5.55;;;3.80;;
19776;SDS011;10047;42.490;26.012;2024-02-15T11:07:09;5.10;;;4.10;;
19776;SDS011;10047;42.490;26.012;2024-02-15T11:09:36;5.50;;;4.45;;
19776;SDS011;10047;42.490;26.012;2024-02-15T11:12:02;7.05;;;4.22;;
19776;SDS011;10047;42.490;26.012;2024-02-15T11:14:29;5.97;;;5.00;;
19776;SDS011;10047;42.490;26.012;2024-02-15T11:16:57;6.05;;;4.22;;
19776;SDS011;10047;42.490;26.012;2024-02-15T11:22:08;6.78;;;4.22;;
19776;SDS011;10047;42.490;26.012;2024-02-15T11:24:45;5.90;;;4.93;;
19776;SDS011;10047;42.490;26.012;2024-02-15T11:27:12;4.75;;;3.50;;
19776;SDS011;10047;42.490;26.012;2024-02-15T11:29:53;9.02;;;6.60;;
19776;SDS011;10047;42.490;26.012;2024-02-15T11:32:33;5.47;;;4.38;;
19776;SDS011;10047;42.490;26.012;2024-02-15T11:35:15;5.22;;;4.30;;
19776;SDS011;10047;42.490;26.012;2024-02-15T11:40:16;6.80;;;4.57;;
19776;SDS011;10047;42.490;26.012;2024-02-15T11:42:45;6.25;;;4.05;;
19776;SDS011;10047;42.490;26.012;2024-02-15T11:45:12;6.05;;;4.22;;
19776;SDS011;10047;42.490;26.012;2024-02-15T11:47:38;4.45;;;3.78;;
19776;SDS011;10047;42.490;26.012;2024-02-15T11:50:09;5.65;;;4.25;;
19776;SDS011;10047;42.490;26.012;2024-02-15T11:52:38;4.05;;;3.50;;
19776;SDS011;10047;42.490;26.012;2024-02-15T11:55:08;5.65;;;4.03;;
19776;SDS011;10047;42.490;26.012;2024-02-15T11:57:39;6.00;;;4.53;;
19776;SDS011;10047;42.490;26.012;2024-02-15T12:00:25;5.75;;;4.45;;
19776;SDS011;10047;42.490;26.012;2024-02-15T12:03:09;4.88;;;3.83;;
19776;SDS011;10047;42.490;26.012;2024-02-15T12:05:54;6.90;;;4.97;;
19776;SDS011;10047;42.490;26.012;2024-02-15T12:08:38;4.35;;;3.75;;
19776;SDS011;10047;42.490;26.012;2024-02-15T12:11:23;5.68;;;3.97;;
19776;SDS011;10047;42.490;26.012;2024-02-15T12:14:07;4.15;;;3.72;;
19776;SDS011;10047;42.490;26.012;2024-02-15T12:17:02;4.90;;;3.95;;
19776;SDS011;10047;42.490;26.012;2024-02-15T12:19:48;5.30;;;3.90;;
19776;SDS011;10047;42.490;26.012;2024-02-15T12:22:17;8.77;;;6.80;;
19776;SDS011;10047;42.490;26.012;2024-02-15T12:24:45;9.25;;;6.85;;
19776;SDS011;10047;42.490;26.012;2024-02-15T12:27:17;8.60;;;5.53;;
19776;SDS011;10047;42.490;26.012;2024-02-15T12:29:44;7.28;;;5.07;;
19776;SDS011;10047;42.490;26.012;2024-02-15T12:32:19;7.10;;;5.35;;
19776;SDS011;10047;42.490;26.012;2024-02-15T12:34:45;4.70;;;3.92;;
19776;SDS011;10047;42.490;26.012;2024-02-15T12:37:12;4.88;;;3.58;;
19776;SDS011;10047;42.490;26.012;2024-02-15T12:39:38;4.47;;;3.58;;
19776;SDS011;10047;42.490;26.012;2024-02-15T12:42:03;4.82;;;4.22;;
19776;SDS011;10047;42.490;26.012;2024-02-15T12:44:32;5.07;;;4.20;;
19776;SDS011;10047;42.490;26.012;2024-02-15T12:46:59;4.15;;;3.45;;
19776;SDS011;10047;42.490;26.012;2024-02-15T12:51:53;5.22;;;4.15;;
19776;SDS011;10047;42.490;26.012;2024-02-15T12:54:39;4.88;;;3.30;;
19776;SDS011;10047;42.490;26.012;2024-02-15T12:57:08;4.65;;;3.63;;
19776;SDS011;10047;42.490;26.012;2024-02-15T12:59:39;4.90;;;3.90;;
19776;SDS011;10047;42.490;26.012;2024-02-15T13:02:04;4.82;;;3.95;;
19776;SDS011;10047;42.490;26.012;2024-02-15T13:04:30;7.47;;;3.90;;
19776;SDS011;10047;42.490;26.012;2024-02-15T13:06:56;4.72;;;4.13;;
19776;SDS011;10047;42.490;26.012;2024-02-15T13:09:21;7.20;;;4.80;;
19776;SDS011;10047;42.490;26.012;2024-02-15T13:11:48;12.05;;;7.35;;
19776;SDS011;10047;42.490;26.012;2024-02-15T13:14:15;6.78;;;5.15;;
19776;SDS011;10047;42.490;26.012;2024-02-15T13:16:40;6.03;;;4.20;;
19776;SDS011;10047;42.490;26.012;2024-02-15T13:19:08;8.40;;;4.82;;
19776;SDS011;10047;42.490;26.012;2024-02-15T13:21:33;9.32;;;5.80;;
19776;SDS011;10047;42.490;26.012;2024-02-15T13:23:59;8.70;;;5.90;;
19776;SDS011;10047;42.490;26.012;2024-02-15T13:26:30;4.93;;;4.10;;
19776;SDS011;10047;42.490;26.012;2024-02-15T13:28:59;5.10;;;4.18;;
19776;SDS011;10047;42.490;26.012;2024-02-15T13:31:25;5.63;;;4.88;;
19776;SDS011;10047;42.490;26.012;2024-02-15T13:33:52;5.75;;;4.50;;
19776;SDS011;10047;42.490;26.012;2024-02-15T13:36:17;5.57;;;4.15;;
19776;SDS011;10047;42.490;26.012;2024-02-15T13:38:44;5.22;;;3.75;;
19776;SDS011;10047;42.490;26.012;2024-02-15T13:41:10;6.82;;;3.78;;
19776;SDS011;10047;42.490;26.012;2024-02-15T13:43:36;5.65;;;4.28;;
19776;SDS011;10047;42.490;26.012;2024-02-15T13:46:02;5.75;;;4.38;;
19776;SDS011;10047;42.490;26.012;2024-02-15T13:48:29;5.72;;;4.95;;
19776;SDS011;10047;42.490;26.012;2024-02-15T13:50:56;5.68;;;4.50;;
19776;SDS011;10047;42.490;26.012;2024-02-15T13:53:22;6.43;;;4.80;;
19776;SDS011;10047;42.490;26.012;2024-02-15T13:55:47;7.05;;;5.43;;
19776;SDS011;10047;42.490;26.012;2024-02-15T13:58:13;6.32;;;4.70;;
19776;SDS011;10047;42.490;26.012;2024-02-15T14:00:39;6.28;;;5.40;;
19776;SDS011;10047;42.490;26.012;2024-02-15T14:03:07;9.15;;;6.50;;
19776;SDS011;10047;42.490;26.012;2024-02-15T14:05:35;7.97;;;5.97;;
19776;SDS011;10047;42.490;26.012;2024-02-15T14:08:01;9.13;;;6.47;;
19776;SDS011;10047;42.490;26.012;2024-02-15T14:10:29;7.88;;;6.60;;
19776;SDS011;10047;42.490;26.012;2024-02-15T14:12:56;8.02;;;6.07;;
19776;SDS011;10047;42.490;26.012;2024-02-15T14:15:25;7.80;;;6.30;;
19776;SDS011;10047;42.490;26.012;2024-02-15T14:17:51;8.82;;;6.78;;
19776;SDS011;10047;42.490;26.012;2024-02-15T14:20:17;7.30;;;6.45;;
19776;SDS011;10047;42.490;26.012;2024-02-15T14:22:47;9.50;;;7.70;;
19776;SDS011;10047;42.490;26.012;2024-02-15T14:25:14;8.90;;;6.90;;
19776;SDS011;10047;42.490;26.012;2024-02-15T14:27:42;10.32;;;7.47;;
19776;SDS011;10047;42.490;26.012;2024-02-15T14:30:08;10.38;;;7.53;;
19776;SDS011;10047;42.490;26.012;2024-02-15T14:32:52;8.95;;;6.93;;
19776;SDS011;10047;42.490;26.012;2024-02-15T14:40:37;9.73;;;7.63;;
19776;SDS011;10047;42.490;26.012;2024-02-15T14:43:04;9.77;;;8.27;;
19776;SDS011;10047;42.490;26.012;2024-02-15T14:45:34;10.73;;;7.90;;
19776;SDS011;10047;42.490;26.012;2024-02-15T14:48:01;16.33;;;9.35;;
19776;SDS011;10047;42.490;26.012;2024-02-15T14:50:28;11.00;;;8.63;;